sensor_id;sensor_type;location;lat;lon;timestamp;pressure;altitude;pressure_sealevel;temperature;humidity
81397;BME280;70852;49.908;8.126;2023-12-28T00:01:30;100235.72;;;1.51;92.33
81397;BME280;70852;49.908;8.126;2023-12-28T00:03:55;100231.69;;;1.59;92.38
81397;BME280;70852;49.908;8.126;2023-12-28T00:06:20;100223.03;;;1.67;91.68
81397;BME280;70852;49.908;8.126;2023-12-28T00:08:45;100224.63;;;1.58;91.29
81397;BME280;70852;49.908;8.126;2023-12-28T00:11:11;100220.25;;;1.57;91.66
81397;BME280;70852;49.908;8.126;2023-12-28T00:13:39;100210.72;;;1.59;91.10
81397;BME280;70852;49.908;8.126;2023-12-28T00:16:04;100208.03;;;1.64;91.15
81397;BME280;70852;49.908;8.126;2023-12-28T00:18:30;100219.78;;;1.70;91.10
81397;BME280;70852;49.908;8.126;2023-12-28T00:20:55;100223.31;;;1.70;90.82
81397;BME280;70852;49.908;8.126;2023-12-28T00:23:20;100212.22;;;1.77;91.35
81397;BME280;70852;49.908;8.126;2023-12-28T00:25:46;100219.56;;;1.81;90.88
81397;BME280;70852;49.908;8.126;2023-12-28T00:28:14;100218.91;;;2.01;89.75
81397;BME280;70852;49.908;8.126;2023-12-28T00:30:42;100211.28;;;2.08;89.13
81397;BME280;70852;49.908;8.126;2023-12-28T00:33:07;100216.22;;;2.16;90.62
81397;BME280;70852;49.908;8.126;2023-12-28T00:35:33;100221.72;;;2.27;90.89
81397;BME280;70852;49.908;8.126;2023-12-28T00:37:58;100217.63;;;2.24;90.45
81397;BME280;70852;49.908;8.126;2023-12-28T00:40:26;100213.00;;;2.25;89.96
81397;BME280;70852;49.908;8.126;2023-12-28T00:42:53;100212.75;;;2.31;89.94
81397;BME280;70852;49.908;8.126;2023-12-28T00:45:25;100216.34;;;2.42;89.99
81397;BME280;70852;49.908;8.126;2023-12-28T00:47:55;100230.25;;;2.45;90.26
81397;BME280;70852;49.908;8.126;2023-12-28T00:50:25;100222.66;;;2.52;89.97
81397;BME280;70852;49.908;8.126;2023-12-28T00:52:55;100209.28;;;2.51;90.45
81397;BME280;70852;49.908;8.126;2023-12-28T00:55:20;100210.66;;;2.58;89.05
81397;BME280;70852;49.908;8.126;2023-12-28T00:57:45;100199.50;;;2.65;89.56
81397;BME280;70852;49.908;8.126;2023-12-28T01:00:11;100198.41;;;2.66;90.35
81397;BME280;70852;49.908;8.126;2023-12-28T01:02:36;100207.16;;;2.78;90.28
81397;BME280;70852;49.908;8.126;2023-12-28T01:05:06;100197.38;;;2.82;89.34
81397;BME280;70852;49.908;8.126;2023-12-28T01:07:31;100201.16;;;2.86;88.38
81397;BME280;70852;49.908;8.126;2023-12-28T01:09:59;100214.03;;;2.96;89.07
81397;BME280;70852;49.908;8.126;2023-12-28T01:12:29;100215.66;;;3.12;89.17
81397;BME280;70852;49.908;8.126;2023-12-28T01:14:54;100224.97;;;3.26;88.12
81397;BME280;70852;49.908;8.126;2023-12-28T01:17:21;100228.25;;;3.39;88.73
81397;BME280;70852;49.908;8.126;2023-12-28T01:19:49;100231.25;;;3.47;89.50
81397;BME280;70852;49.908;8.126;2023-12-28T01:22:14;100236.13;;;3.50;89.21
81397;BME280;70852;49.908;8.126;2023-12-28T01:24:39;100237.78;;;3.46;89.03
81397;BME280;70852;49.908;8.126;2023-12-28T01:27:05;100234.25;;;3.46;88.24
81397;BME280;70852;49.908;8.126;2023-12-28T01:29:30;100240.25;;;3.53;87.94
81397;BME280;70852;49.908;8.126;2023-12-28T01:31:55;100238.88;;;3.55;88.00
81397;BME280;70852;49.908;8.126;2023-12-28T01:34:21;100254.97;;;3.62;88.00
81397;BME280;70852;49.908;8.126;2023-12-28T01:36:46;100253.34;;;3.66;87.19
81397;BME280;70852;49.908;8.126;2023-12-28T01:39:11;100253.63;;;3.64;88.16
81397;BME280;70852;49.908;8.126;2023-12-28T01:41:37;100259.06;;;3.80;87.76
81397;BME280;70852;49.908;8.126;2023-12-28T01:44:02;100256.34;;;3.90;88.35
81397;BME280;70852;49.908;8.126;2023-12-28T01:46:27;100258.13;;;4.25;85.50
81397;BME280;70852;49.908;8.126;2023-12-28T01:48:53;100260.34;;;4.87;81.79
81397;BME280;70852;49.908;8.126;2023-12-28T01:51:22;100265.06;;;5.21;80.93
81397;BME280;70852;49.908;8.126;2023-12-28T01:53:50;100275.03;;;5.40;79.95
81397;BME280;70852;49.908;8.126;2023-12-28T01:56:17;100263.44;;;5.87;77.14
81397;BME280;70852;49.908;8.126;2023-12-28T01:58:46;100250.31;;;6.13;75.85
81397;BME280;70852;49.908;8.126;2023-12-28T02:01:19;100252.47;;;6.16;76.35
81397;BME280;70852;49.908;8.126;2023-12-28T02:03:47;100253.13;;;6.32;75.23
81397;BME280;70852;49.908;8.126;2023-12-28T02:06:15;100257.56;;;6.52;74.39
81397;BME280;70852;49.908;8.126;2023-12-28T02:08:41;100246.34;;;6.48;74.67
81397;BME280;70852;49.908;8.126;2023-12-28T02:11:09;100268.94;;;6.40;75.75
81397;BME280;70852;49.908;8.126;2023-12-28T02:13:34;100270.00;;;6.44;75.33
81397;BME280;70852;49.908;8.126;2023-12-28T02:16:08;100280.16;;;6.44;75.82
81397;BME280;70852;49.908;8.126;2023-12-28T02:18:38;100282.00;;;6.48;75.35
81397;BME280;70852;49.908;8.126;2023-12-28T02:21:06;100284.47;;;6.50;75.48
81397;BME280;70852;49.908;8.126;2023-12-28T02:23:32;100280.31;;;6.52;75.49
81397;BME280;70852;49.908;8.126;2023-12-28T02:25:58;100288.56;;;6.52;75.95
81397;BME280;70852;49.908;8.126;2023-12-28T02:28:23;100296.81;;;6.47;76.06
81397;BME280;70852;49.908;8.126;2023-12-28T02:30:53;100300.34;;;6.53;76.08
81397;BME280;70852;49.908;8.126;2023-12-28T02:33:25;100292.81;;;6.64;76.85
81397;BME280;70852;49.908;8.126;2023-12-28T02:38:17;100308.94;;;6.89;76.38
81397;BME280;70852;49.908;8.126;2023-12-28T02:40:47;100307.25;;;6.93;76.85
81397;BME280;70852;49.908;8.126;2023-12-28T02:43:15;100305.09;;;6.90;77.17
81397;BME280;70852;49.908;8.126;2023-12-28T02:45:42;100308.44;;;6.87;77.39
81397;BME280;70852;49.908;8.126;2023-12-28T02:48:10;100305.09;;;6.90;77.50
81397;BME280;70852;49.908;8.126;2023-12-28T02:50:40;100306.19;;;6.89;77.43
81397;BME280;70852;49.908;8.126;2023-12-28T02:53:05;100305.84;;;6.95;77.49
81397;BME280;70852;49.908;8.126;2023-12-28T02:55:33;100304.50;;;6.93;77.83
81397;BME280;70852;49.908;8.126;2023-12-28T02:57:58;100297.97;;;6.89;78.64
81397;BME280;70852;49.908;8.126;2023-12-28T03:00:29;100294.72;;;6.87;78.37
81397;BME280;70852;49.908;8.126;2023-12-28T03:02:54;100282.41;;;6.84;79.06
81397;BME280;70852;49.908;8.126;2023-12-28T03:05:19;100284.19;;;6.94;78.98
81397;BME280;70852;49.908;8.126;2023-12-28T03:07:47;100294.06;;;6.95;79.84
81397;BME280;70852;49.908;8.126;2023-12-28T03:10:14;100305.97;;;7.09;79.73
81397;BME280;70852;49.908;8.126;2023-12-28T03:12:40;100291.16;;;7.05;80.20
81397;BME280;70852;49.908;8.126;2023-12-28T03:15:07;100296.66;;;7.05;80.28
81397;BME280;70852;49.908;8.126;2023-12-28T03:17:35;100300.13;;;7.11;80.57
81397;BME280;70852;49.908;8.126;2023-12-28T03:20:02;100306.00;;;7.04;80.86
81397;BME280;70852;49.908;8.126;2023-12-28T03:22:30;100308.22;;;7.02;81.39
81397;BME280;70852;49.908;8.126;2023-12-28T03:24:55;100298.06;;;7.03;81.08
81397;BME280;70852;49.908;8.126;2023-12-28T03:27:20;100294.78;;;7.01;81.09
81397;BME280;70852;49.908;8.126;2023-12-28T03:29:46;100302.06;;;7.10;80.86
81397;BME280;70852;49.908;8.126;2023-12-28T03:32:16;100305.44;;;7.07;81.45
81397;BME280;70852;49.908;8.126;2023-12-28T03:34:48;100309.28;;;7.06;81.42
81397;BME280;70852;49.908;8.126;2023-12-28T03:37:14;100292.00;;;7.06;81.63
81397;BME280;70852;49.908;8.126;2023-12-28T03:39:41;100302.16;;;7.05;81.44
81397;BME280;70852;49.908;8.126;2023-12-28T03:42:07;100301.72;;;7.17;81.12
81397;BME280;70852;49.908;8.126;2023-12-28T03:44:32;100280.34;;;7.14;81.62
81397;BME280;70852;49.908;8.126;2023-12-28T03:47:00;100299.22;;;7.20;81.45
81397;BME280;70852;49.908;8.126;2023-12-28T03:49:27;100290.59;;;7.27;81.30
81397;BME280;70852;49.908;8.126;2023-12-28T03:51:52;100288.84;;;7.31;81.34
81397;BME280;70852;49.908;8.126;2023-12-28T03:54:20;100291.13;;;7.29;81.77
81397;BME280;70852;49.908;8.126;2023-12-28T03:56:48;100301.56;;;7.27;81.87
81397;BME280;70852;49.908;8.126;2023-12-28T03:59:13;100297.91;;;7.31;82.19
81397;BME280;70852;49.908;8.126;2023-12-28T04:01:40;100272.09;;;7.32;82.22
81397;BME280;70852;49.908;8.126;2023-12-28T04:04:05;100296.31;;;7.30;82.61
81397;BME280;70852;49.908;8.126;2023-12-28T04:06:31;100296.31;;;7.30;82.63
81397;BME280;70852;49.908;8.126;2023-12-28T04:08:58;100301.81;;;7.30;83.38
81397;BME280;70852;49.908;8.126;2023-12-28T04:11:24;100297.63;;;7.33;83.18
81397;BME280;70852;49.908;8.126;2023-12-28T04:13:49;100291.31;;;7.32;83.23
81397;BME280;70852;49.908;8.126;2023-12-28T04:16:15;100314.56;;;7.40;83.28
81397;BME280;70852;49.908;8.126;2023-12-28T04:18:43;100316.78;;;7.38;83.44
81397;BME280;70852;49.908;8.126;2023-12-28T04:21:10;100317.31;;;7.40;83.56
81397;BME280;70852;49.908;8.126;2023-12-28T04:23:36;100311.31;;;7.38;84.24
81397;BME280;70852;49.908;8.126;2023-12-28T04:26:02;100325.56;;;7.40;83.93
81397;BME280;70852;49.908;8.126;2023-12-28T04:28:28;100322.06;;;7.34;84.04
81397;BME280;70852;49.908;8.126;2023-12-28T04:30:55;100325.34;;;7.37;84.42
81397;BME280;70852;49.908;8.126;2023-12-28T04:33:21;100318.50;;;7.34;84.60
81397;BME280;70852;49.908;8.126;2023-12-28T04:35:46;100336.09;;;7.33;84.46
81397;BME280;70852;49.908;8.126;2023-12-28T04:38:12;100328.38;;;7.35;84.54
81397;BME280;70852;49.908;8.126;2023-12-28T04:40:37;100326.16;;;7.37;84.64
81397;BME280;70852;49.908;8.126;2023-12-28T04:43:05;100328.09;;;7.37;84.76
81397;BME280;70852;49.908;8.126;2023-12-28T04:45:32;100324.81;;;7.34;84.50
81397;BME280;70852;49.908;8.126;2023-12-28T04:47:58;100326.72;;;7.34;84.78
81397;BME280;70852;49.908;8.126;2023-12-28T04:50:24;100339.06;;;7.37;84.81
81397;BME280;70852;49.908;8.126;2023-12-28T04:52:49;100339.13;;;7.31;85.56
81397;BME280;70852;49.908;8.126;2023-12-28T04:55:14;100342.94;;;7.35;85.14
81397;BME280;70852;49.908;8.126;2023-12-28T04:57:42;100344.41;;;7.47;84.85
81397;BME280;70852;49.908;8.126;2023-12-28T05:00:08;100364.72;;;7.51;85.03
81397;BME280;70852;49.908;8.126;2023-12-28T05:02:33;100351.13;;;7.41;85.54
81397;BME280;70852;49.908;8.126;2023-12-28T05:05:01;100367.66;;;7.35;85.85
81397;BME280;70852;49.908;8.126;2023-12-28T05:07:29;100353.84;;;7.41;85.60
81397;BME280;70852;49.908;8.126;2023-12-28T05:09:54;100362.91;;;7.41;85.65
81397;BME280;70852;49.908;8.126;2023-12-28T05:12:21;100362.91;;;7.41;85.61
81397;BME280;70852;49.908;8.126;2023-12-28T05:14:47;100369.72;;;7.44;85.93
81397;BME280;70852;49.908;8.126;2023-12-28T05:17:12;100362.53;;;7.48;85.45
81397;BME280;70852;49.908;8.126;2023-12-28T05:19:37;100363.72;;;7.42;85.80
81397;BME280;70852;49.908;8.126;2023-12-28T05:22:03;100364.84;;;7.41;85.96
81397;BME280;70852;49.908;8.126;2023-12-28T05:24:33;100377.69;;;7.45;86.04
81397;BME280;70852;49.908;8.126;2023-12-28T05:27:01;100378.59;;;7.41;86.35
81397;BME280;70852;49.908;8.126;2023-12-28T05:29:29;100373.16;;;7.35;86.55
81397;BME280;70852;49.908;8.126;2023-12-28T05:31:57;100379.31;;;7.46;85.98
81397;BME280;70852;49.908;8.126;2023-12-28T05:34:23;100384.09;;;7.41;86.17
81397;BME280;70852;49.908;8.126;2023-12-28T05:36:51;100377.53;;;7.37;86.56
81397;BME280;70852;49.908;8.126;2023-12-28T05:39:18;100379.19;;;7.38;86.53
81397;BME280;70852;49.908;8.126;2023-12-28T05:41:46;100372.34;;;7.35;86.56
81397;BME280;70852;49.908;8.126;2023-12-28T05:44:13;100380.81;;;7.39;86.71
81397;BME280;70852;49.908;8.126;2023-12-28T05:46:39;100371.75;;;7.38;86.56
81397;BME280;70852;49.908;8.126;2023-12-28T05:49:06;100368.75;;;7.34;86.84
81397;BME280;70852;49.908;8.126;2023-12-28T05:51:38;100369.00;;;7.38;86.48
81397;BME280;70852;49.908;8.126;2023-12-28T05:54:07;100357.72;;;7.40;86.71
81397;BME280;70852;49.908;8.126;2023-12-28T05:56:34;100355.25;;;7.38;86.69
81397;BME280;70852;49.908;8.126;2023-12-28T05:59:00;100346.78;;;7.34;87.13
81397;BME280;70852;49.908;8.126;2023-12-28T06:01:28;100347.22;;;7.42;86.80
81397;BME280;70852;49.908;8.126;2023-12-28T06:03:54;100352.81;;;7.37;87.21
81397;BME280;70852;49.908;8.126;2023-12-28T06:06:21;100357.25;;;7.32;87.47
81397;BME280;70852;49.908;8.126;2023-12-28T06:08:49;100363.66;;;7.28;87.48
81397;BME280;70852;49.908;8.126;2023-12-28T06:11:16;100351.75;;;7.32;87.43
81397;BME280;70852;49.908;8.126;2023-12-28T06:13:44;100358.06;;;7.33;87.36
81397;BME280;70852;49.908;8.126;2023-12-28T06:16:11;100362.75;;;7.32;87.69
81397;BME280;70852;49.908;8.126;2023-12-28T06:18:41;100362.25;;;7.30;87.89
81397;BME280;70852;49.908;8.126;2023-12-28T06:21:08;100356.97;;;7.34;87.56
81397;BME280;70852;49.908;8.126;2023-12-28T06:23:35;100361.63;;;7.33;87.76
81397;BME280;70852;49.908;8.126;2023-12-28T06:26:07;100360.91;;;7.28;88.18
81397;BME280;70852;49.908;8.126;2023-12-28T06:28:32;100361.44;;;7.30;88.25
81397;BME280;70852;49.908;8.126;2023-12-28T06:31:00;100358.88;;;7.33;87.97
81397;BME280;70852;49.908;8.126;2023-12-28T06:33:29;100370.16;;;7.32;88.24
81397;BME280;70852;49.908;8.126;2023-12-28T06:35:56;100366.78;;;7.40;88.07
81397;BME280;70852;49.908;8.126;2023-12-28T06:38:27;100372.28;;;7.40;88.05
81397;BME280;70852;49.908;8.126;2023-12-28T06:40:56;100362.16;;;7.35;88.06
81397;BME280;70852;49.908;8.126;2023-12-28T06:43:24;100366.03;;;7.34;88.12
81397;BME280;70852;49.908;8.126;2023-12-28T06:45:54;100373.22;;;7.30;88.46
81397;BME280;70852;49.908;8.126;2023-12-28T06:48:19;100371.81;;;7.33;88.28
81397;BME280;70852;49.908;8.126;2023-12-28T06:50:47;100368.19;;;7.38;87.84
81397;BME280;70852;49.908;8.126;2023-12-28T06:53:14;100369.81;;;7.39;88.15
81397;BME280;70852;49.908;8.126;2023-12-28T06:55:40;100375.22;;;7.44;87.74
81397;BME280;70852;49.908;8.126;2023-12-28T06:58:07;100378.22;;;7.47;87.82
81397;BME280;70852;49.908;8.126;2023-12-28T07:00:35;100384.97;;;7.55;87.25
81397;BME280;70852;49.908;8.126;2023-12-28T07:03:05;100391.28;;;7.55;87.46
81397;BME280;70852;49.908;8.126;2023-12-28T07:05:33;100380.88;;;7.52;87.43
81397;BME280;70852;49.908;8.126;2023-12-28T07:08:04;100378.66;;;7.54;87.39
81397;BME280;70852;49.908;8.126;2023-12-28T07:10:31;100380.28;;;7.55;87.37
81397;BME280;70852;49.908;8.126;2023-12-28T07:12:57;100380.09;;;7.52;87.41
81397;BME280;70852;49.908;8.126;2023-12-28T07:15:22;100384.44;;;7.53;87.50
81397;BME280;70852;49.908;8.126;2023-12-28T07:17:50;100395.75;;;7.51;87.40
81397;BME280;70852;49.908;8.126;2023-12-28T07:20:18;100392.19;;;7.51;87.33
81397;BME280;70852;49.908;8.126;2023-12-28T07:22:45;100397.75;;;7.46;87.85
81397;BME280;70852;49.908;8.126;2023-12-28T07:25:11;100396.63;;;7.47;87.43
81397;BME280;70852;49.908;8.126;2023-12-28T07:27:36;100401.53;;;7.50;87.51
81397;BME280;70852;49.908;8.126;2023-12-28T07:30:02;100401.47;;;7.55;87.41
81397;BME280;70852;49.908;8.126;2023-12-28T07:32:31;100391.00;;;7.57;87.49
81397;BME280;70852;49.908;8.126;2023-12-28T07:34:56;100398.19;;;7.53;87.55
81397;BME280;70852;49.908;8.126;2023-12-28T07:37:24;100392.69;;;7.53;87.46
81397;BME280;70852;49.908;8.126;2023-12-28T07:39:49;100388.34;;;7.52;87.53
81397;BME280;70852;49.908;8.126;2023-12-28T07:42:17;100392.78;;;7.48;87.62
81397;BME280;70852;49.908;8.126;2023-12-28T07:44:42;100398.72;;;7.55;87.50
81397;BME280;70852;49.908;8.126;2023-12-28T07:47:13;100397.69;;;7.51;87.57
81397;BME280;70852;49.908;8.126;2023-12-28T07:49:39;100397.16;;;7.49;87.68
81397;BME280;70852;49.908;8.126;2023-12-28T07:52:05;100394.47;;;7.44;87.61
81397;BME280;70852;49.908;8.126;2023-12-28T07:54:30;100392.09;;;7.37;88.16
81397;BME280;70852;49.908;8.126;2023-12-28T07:56:59;100391.50;;;7.40;87.67
81397;BME280;70852;49.908;8.126;2023-12-28T07:59:27;100398.69;;;7.36;87.95
81397;BME280;70852;49.908;8.126;2023-12-28T08:01:55;100399.88;;;7.30;88.23
81397;BME280;70852;49.908;8.126;2023-12-28T08:04:20;100412.47;;;7.31;88.14
81397;BME280;70852;49.908;8.126;2023-12-28T08:06:45;100413.00;;;7.33;88.01
81397;BME280;70852;49.908;8.126;2023-12-28T08:09:13;100418.06;;;7.26;88.15
81397;BME280;70852;49.908;8.126;2023-12-28T08:11:39;100412.13;;;7.19;88.69
81397;BME280;70852;49.908;8.126;2023-12-28T08:14:07;100410.75;;;7.16;88.94
81397;BME280;70852;49.908;8.126;2023-12-28T08:16:37;100406.38;;;7.15;88.98
81397;BME280;70852;49.908;8.126;2023-12-28T08:19:02;100396.75;;;7.18;89.06
81397;BME280;70852;49.908;8.126;2023-12-28T08:21:32;100395.34;;;7.20;88.56
81397;BME280;70852;49.908;8.126;2023-12-28T08:24:00;100402.75;;;7.20;88.71
81397;BME280;70852;49.908;8.126;2023-12-28T08:26:25;100410.19;;;7.19;88.87
81397;BME280;70852;49.908;8.126;2023-12-28T08:28:51;100407.94;;;7.21;88.69
81397;BME280;70852;49.908;8.126;2023-12-28T08:31:17;100398.09;;;7.20;88.47
81397;BME280;70852;49.908;8.126;2023-12-28T08:33:42;100397.78;;;7.22;88.51
81397;BME280;70852;49.908;8.126;2023-12-28T08:36:13;100388.13;;;7.24;88.08
81397;BME280;70852;49.908;8.126;2023-12-28T08:38:44;100389.78;;;7.25;87.94
81397;BME280;70852;49.908;8.126;2023-12-28T08:41:23;100387.59;;;7.22;88.14
81397;BME280;70852;49.908;8.126;2023-12-28T08:43:54;100383.41;;;7.30;88.09
81397;BME280;70852;49.908;8.126;2023-12-28T08:46:22;100382.75;;;7.38;87.41
81397;BME280;70852;49.908;8.126;2023-12-28T08:48:52;100396.41;;;7.43;87.36
81397;BME280;70852;49.908;8.126;2023-12-28T08:51:20;100402.19;;;7.42;87.63
81397;BME280;70852;49.908;8.126;2023-12-28T08:53:46;100396.63;;;7.47;87.46
81397;BME280;70852;49.908;8.126;2023-12-28T08:56:21;100392.91;;;7.56;87.10
81397;BME280;70852;49.908;8.126;2023-12-28T08:58:49;100401.09;;;7.61;87.10
81397;BME280;70852;49.908;8.126;2023-12-28T09:01:26;100397.69;;;7.69;86.59
81397;BME280;70852;49.908;8.126;2023-12-28T09:03:53;100401.78;;;7.72;86.34
81397;BME280;70852;49.908;8.126;2023-12-28T09:06:20;100396.13;;;7.82;86.30
81397;BME280;70852;49.908;8.126;2023-12-28T09:08:48;100407.03;;;7.87;85.54
81397;BME280;70852;49.908;8.126;2023-12-28T09:11:14;100417.19;;;8.05;85.32
81397;BME280;70852;49.908;8.126;2023-12-28T09:13:40;100423.50;;;8.25;84.38
81397;BME280;70852;49.908;8.126;2023-12-28T09:16:10;100419.41;;;8.41;84.01
81397;BME280;70852;49.908;8.126;2023-12-28T09:18:36;100415.94;;;8.49;83.09
81397;BME280;70852;49.908;8.126;2023-12-28T09:21:06;100417.50;;;8.55;83.30
81397;BME280;70852;49.908;8.126;2023-12-28T09:23:34;100427.63;;;8.73;82.59
81397;BME280;70852;49.908;8.126;2023-12-28T09:26:01;100429.97;;;8.80;82.49
81397;BME280;70852;49.908;8.126;2023-12-28T09:28:31;100435.13;;;9.00;81.64
81397;BME280;70852;49.908;8.126;2023-12-28T09:30:56;100428.06;;;9.08;81.01
81397;BME280;70852;49.908;8.126;2023-12-28T09:33:22;100435.41;;;9.12;80.61
81397;BME280;70852;49.908;8.126;2023-12-28T09:35:50;100435.94;;;9.28;80.00
81397;BME280;70852;49.908;8.126;2023-12-28T09:38:20;100447.44;;;9.44;79.39
81397;BME280;70852;49.908;8.126;2023-12-28T09:40:49;100464.34;;;9.65;78.90
81397;BME280;70852;49.908;8.126;2023-12-28T09:43:20;100461.63;;;10.01;77.18
81397;BME280;70852;49.908;8.126;2023-12-28T09:45:47;100458.91;;;10.37;75.16
81397;BME280;70852;49.908;8.126;2023-12-28T09:48:16;100450.16;;;10.96;72.73
81397;BME280;70852;49.908;8.126;2023-12-28T09:50:44;100445.81;;;11.61;70.50
81397;BME280;70852;49.908;8.126;2023-12-28T09:53:10;100450.63;;;12.03;68.93
81397;BME280;70852;49.908;8.126;2023-12-28T09:55:35;100471.91;;;11.77;69.15
81397;BME280;70852;49.908;8.126;2023-12-28T09:58:03;100464.25;;;11.26;71.31
81397;BME280;70852;49.908;8.126;2023-12-28T10:00:31;100467.47;;;11.59;70.02
81397;BME280;70852;49.908;8.126;2023-12-28T10:02:56;100464.31;;;12.43;67.52
81397;BME280;70852;49.908;8.126;2023-12-28T10:05:24;100454.81;;;12.78;65.60
81397;BME280;70852;49.908;8.126;2023-12-28T10:07:50;100456.50;;;13.47;63.73
81397;BME280;70852;49.908;8.126;2023-12-28T10:10:18;100456.00;;;13.07;64.49
81397;BME280;70852;49.908;8.126;2023-12-28T10:12:45;100457.59;;;12.70;65.41
81397;BME280;70852;49.908;8.126;2023-12-28T10:15:13;100461.84;;;12.41;66.94
81397;BME280;70852;49.908;8.126;2023-12-28T10:17:41;100459.25;;;12.54;65.79
81397;BME280;70852;49.908;8.126;2023-12-28T10:20:12;100459.34;;;13.38;63.28
81397;BME280;70852;49.908;8.126;2023-12-28T10:22:37;100462.38;;;14.04;61.40
81397;BME280;70852;49.908;8.126;2023-12-28T10:25:03;100457.16;;;14.44;59.66
81397;BME280;70852;49.908;8.126;2023-12-28T10:27:29;100451.50;;;15.55;55.89
81397;BME280;70852;49.908;8.126;2023-12-28T10:29:57;100460.22;;;16.18;54.41
81397;BME280;70852;49.908;8.126;2023-12-28T10:32:23;100459.88;;;17.66;50.49
81397;BME280;70852;49.908;8.126;2023-12-28T10:34:54;100457.53;;;17.05;50.91
81397;BME280;70852;49.908;8.126;2023-12-28T10:37:22;100461.00;;;16.59;51.73
81397;BME280;70852;49.908;8.126;2023-12-28T10:39:51;100457.56;;;16.77;50.61
81397;BME280;70852;49.908;8.126;2023-12-28T10:42:25;100456.81;;;17.55;50.20
81397;BME280;70852;49.908;8.126;2023-12-28T10:44:55;100467.56;;;18.23;47.32
81397;BME280;70852;49.908;8.126;2023-12-28T10:47:29;100456.09;;;17.59;48.36
81397;BME280;70852;49.908;8.126;2023-12-28T10:50:03;100443.13;;;17.35;48.72
81397;BME280;70852;49.908;8.126;2023-12-28T10:52:30;100445.09;;;17.18;49.15
81397;BME280;70852;49.908;8.126;2023-12-28T10:57:33;100447.75;;;16.28;51.54
81397;BME280;70852;49.908;8.126;2023-12-28T11:00:15;100434.16;;;16.66;51.28
81397;BME280;70852;49.908;8.126;2023-12-28T11:02:48;100435.31;;;15.97;52.23
81397;BME280;70852;49.908;8.126;2023-12-28T11:05:17;100437.47;;;16.16;52.39
81397;BME280;70852;49.908;8.126;2023-12-28T11:07:47;100432.91;;;15.84;52.48
81397;BME280;70852;49.908;8.126;2023-12-28T11:10:16;100434.28;;;15.90;52.90
81397;BME280;70852;49.908;8.126;2023-12-28T11:12:43;100426.03;;;14.96;54.00
81397;BME280;70852;49.908;8.126;2023-12-28T11:15:09;100431.63;;;14.63;55.19
81397;BME280;70852;49.908;8.126;2023-12-28T11:17:37;100432.50;;;13.22;60.08
81397;BME280;70852;49.908;8.126;2023-12-28T11:20:03;100435.53;;;12.91;62.21
81397;BME280;70852;49.908;8.126;2023-12-28T11:22:32;100439.41;;;12.17;63.97
81397;BME280;70852;49.908;8.126;2023-12-28T11:24:58;100437.94;;;11.85;63.86
81397;BME280;70852;49.908;8.126;2023-12-28T11:27:26;100432.00;;;11.69;65.48
81397;BME280;70852;49.908;8.126;2023-12-28T11:30:00;100428.22;;;11.48;66.33
81397;BME280;70852;49.908;8.126;2023-12-28T11:32:28;100423.00;;;11.38;67.68
81397;BME280;70852;49.908;8.126;2023-12-28T11:34:58;100415.81;;;11.37;67.48
81397;BME280;70852;49.908;8.126;2023-12-28T11:37:29;100427.66;;;11.20;68.60
81397;BME280;70852;49.908;8.126;2023-12-28T11:39:56;100416.13;;;11.27;68.87
81397;BME280;70852;49.908;8.126;2023-12-28T11:42:23;100417.28;;;11.34;68.30
81397;BME280;70852;49.908;8.126;2023-12-28T11:44:55;100416.91;;;11.19;67.69
81397;BME280;70852;49.908;8.126;2023-12-28T11:47:24;100411.75;;;10.86;69.78
81397;BME280;70852;49.908;8.126;2023-12-28T11:49:50;100398.56;;;10.83;70.70
81397;BME280;70852;49.908;8.126;2023-12-28T11:52:29;100401.38;;;11.57;68.68
81397;BME280;70852;49.908;8.126;2023-12-28T11:54:58;100392.28;;;11.65;67.60
81397;BME280;70852;49.908;8.126;2023-12-28T11:57:26;100395.50;;;11.33;68.86
81397;BME280;70852;49.908;8.126;2023-12-28T11:59:56;100397.03;;;11.08;69.47
81397;BME280;70852;49.908;8.126;2023-12-28T12:02:26;100381.69;;;10.93;70.38
81397;BME280;70852;49.908;8.126;2023-12-28T12:04:54;100373.69;;;10.83;70.84
81397;BME280;70852;49.908;8.126;2023-12-28T12:07:24;100374.78;;;10.74;71.05
81397;BME280;70852;49.908;8.126;2023-12-28T12:09:58;100385.03;;;10.73;71.33
81397;BME280;70852;49.908;8.126;2023-12-28T12:12:29;100380.75;;;10.58;71.76
81397;BME280;70852;49.908;8.126;2023-12-28T12:14:54;100382.41;;;10.68;72.20
81397;BME280;70852;49.908;8.126;2023-12-28T12:17:21;100369.75;;;10.67;72.10
81397;BME280;70852;49.908;8.126;2023-12-28T12:19:46;100368.91;;;10.67;72.74
81397;BME280;70852;49.908;8.126;2023-12-28T12:22:15;100361.88;;;10.60;72.11
81397;BME280;70852;49.908;8.126;2023-12-28T12:24:44;100365.66;;;10.64;73.03
81397;BME280;70852;49.908;8.126;2023-12-28T12:27:13;100352.72;;;10.82;72.36
81397;BME280;70852;49.908;8.126;2023-12-28T12:29:39;100343.59;;;11.21;71.08
81397;BME280;70852;49.908;8.126;2023-12-28T12:32:04;100347.84;;;10.79;72.22
81397;BME280;70852;49.908;8.126;2023-12-28T12:34:32;100334.22;;;10.52;72.76
81397;BME280;70852;49.908;8.126;2023-12-28T12:36:58;100333.88;;;10.45;73.72
81397;BME280;70852;49.908;8.126;2023-12-28T12:39:27;100330.13;;;10.41;74.04
81397;BME280;70852;49.908;8.126;2023-12-28T12:41:54;100328.75;;;10.30;74.53
81397;BME280;70852;49.908;8.126;2023-12-28T12:44:25;100326.06;;;10.16;75.15
81397;BME280;70852;49.908;8.126;2023-12-28T12:46:59;100324.50;;;10.01;76.08
81397;BME280;70852;49.908;8.126;2023-12-28T12:49:25;100324.94;;;9.95;76.37
81397;BME280;70852;49.908;8.126;2023-12-28T12:51:51;100322.88;;;10.00;76.36
81397;BME280;70852;49.908;8.126;2023-12-28T12:54:17;100323.06;;;10.04;76.45
81397;BME280;70852;49.908;8.126;2023-12-28T12:56:46;100322.41;;;10.07;76.63
81397;BME280;70852;49.908;8.126;2023-12-28T12:59:11;100319.72;;;10.15;76.13
81397;BME280;70852;49.908;8.126;2023-12-28T13:01:45;100324.81;;;10.22;75.60
81397;BME280;70852;49.908;8.126;2023-12-28T13:04:16;100313.72;;;10.36;75.62